Time;durP1;ratioP1;P1;durP2;ratioP2;P2;SDS_P1;SDS_P2;PMS_P1;PMS_P2;Temp;Humidity;BMP_temperature;BMP_pressure;BME280_temperature;BME280_humidity;BME280_pressure;Samples;Min_cycle;Max_cycle;Signal;HPM_P1;HPM_P2
2023/02/07 00:01:53;;;;;;;14.07;7.13;;;;;;;-145.69;100.00;52721.66;5117099;28;20236;-82
2023/02/07 00:04:20;;;;;;;14.73;6.77;;;;;;;-145.69;100.00;52757.31;5117319;28;20560;-83
2023/02/07 00:06:46;;;;;;;13.20;6.60;;;;;;;-145.69;100.00;52725.63;5114804;28;20660;-83
2023/02/07 00:09:12;;;;;;;11.30;6.00;;;;;;;-145.69;100.00;52725.63;5116598;28;20219;-82
2023/02/07 00:11:40;;;;;;;14.13;5.67;;;;;;;-145.69;100.00;52765.22;5116842;28;20208;-82
2023/02/07 00:14:08;;;;;;;15.30;6.13;;;;;;;-145.69;100.00;52771.16;5116504;28;20201;-82
2023/02/07 00:16:36;;;;;;;13.50;6.00;;;;;;;-145.69;100.00;52765.22;5116735;28;20197;-83
2023/02/07 00:19:02;;;;;;;14.90;6.60;;;;;;;-145.69;100.00;52721.66;5115158;28;20198;-82
2023/02/07 00:21:29;;;;;;;17.73;6.17;;;;;;;-145.69;100.00;52753.34;5097405;28;20577;-83
2023/02/07 00:23:56;;;;;;;14.23;6.27;;;;;;;-145.69;100.00;52769.19;5095067;28;20274;-83
2023/02/07 00:26:24;;;;;;;16.50;6.47;;;;;;;-145.69;100.00;52733.53;5096395;28;20201;-83
2023/02/07 00:28:53;;;;;;;16.97;6.30;;;;;;;-145.69;100.00;52757.31;5096534;28;20202;-84
2023/02/07 00:31:21;;;;;;;11.37;6.17;;;;;;;-145.69;100.00;52761.25;5100015;28;20194;-83
2023/02/07 00:33:51;;;;;;;14.23;6.37;;;;;;;-145.69;100.00;52759.28;5116547;28;20606;-83
2023/02/07 00:36:20;;;;;;;15.03;6.60;;;;;;;-145.69;100.00;52761.25;5116650;28;20202;-83
2023/02/07 00:38:46;;;;;;;15.17;6.60;;;;;;;-145.69;100.00;52725.63;5116594;28;20201;-81
2023/02/07 00:41:17;;;;;;;12.10;6.73;;;;;;;-145.69;100.00;52769.19;5116058;28;20722;-83
2023/02/07 00:43:45;;;;;;;19.87;6.37;;;;;;;-145.69;100.00;52761.25;5108060;28;20255;-83
2023/02/07 00:46:12;;;;;;;12.80;6.07;;;;;;;-145.69;100.00;52747.41;5105302;28;20194;-84
2023/02/07 00:48:39;;;;;;;17.37;6.33;;;;;;;-145.69;100.00;52771.16;5116390;28;20198;-84
2023/02/07 00:51:07;;;;;;;16.17;6.57;;;;;;;-145.69;100.00;52727.59;5116408;28;20657;-84
2023/02/07 00:53:34;;;;;;;18.63;7.50;;;;;;;-145.69;100.00;52771.16;5116578;28;20205;-85
2023/02/07 00:56:00;;;;;;;17.03;7.67;;;;;;;-145.69;100.00;52731.56;5117480;28;20197;-85
2023/02/07 00:58:27;;;;;;;17.10;7.13;;;;;;;-145.69;100.00;52777.09;5116287;28;20198;-84
2023/02/07 01:00:53;;;;;;;18.23;8.03;;;;;;;-145.69;100.00;52769.19;5116521;28;20228;-84
2023/02/07 01:03:20;;;;;;;14.87;8.07;;;;;;;-145.69;100.00;52721.66;5103962;28;20206;-84
2023/02/07 01:05:47;;;;;;;19.13;7.93;;;;;;;-145.69;100.00;52763.25;5095974;28;20201;-84
2023/02/07 01:08:15;;;;;;;19.20;8.33;;;;;;;-145.69;100.00;52773.16;5095891;28;20202;-84
2023/02/07 01:10:43;;;;;;;26.20;10.53;;;;;;;-145.69;100.00;52779.09;5095588;28;20202;-84
2023/02/07 01:13:10;;;;;;;29.57;12.17;;;;;;;-145.69;100.00;52743.44;5095308;28;20206;-83
2023/02/07 01:15:37;;;;;;;34.17;13.20;;;;;;;-145.69;100.00;52745.41;5095705;28;20198;-82
2023/02/07 01:18:04;;;;;;;45.33;16.10;;;;;;;-145.69;100.00;52761.25;5094491;28;20202;-84
2023/02/07 01:20:31;;;;;;;42.60;17.57;;;;;;;-145.69;100.00;52749.38;5095667;28;20194;-83
2023/02/07 01:22:57;;;;;;;45.30;18.73;;;;;;;-145.69;100.00;52741.47;5095684;28;20202;-84
2023/02/07 01:25:25;;;;;;;46.17;19.80;;;;;;;-145.69;100.00;52751.34;5095604;28;20205;-83
2023/02/07 01:27:52;;;;;;;53.97;19.83;;;;;;;-145.69;100.00;52753.34;5095582;28;20266;-84
2023/02/07 01:30:18;;;;;;;56.33;19.87;;;;;;;-145.69;100.00;52761.25;5095419;28;20209;-85
2023/02/07 01:32:45;;;;;;;49.97;19.60;;;;;;;-145.69;100.00;52747.41;5113941;28;20687;-84
2023/02/07 01:35:11;;;;;;;70.23;23.80;;;;;;;-145.69;100.00;52765.22;5115412;28;20201;-83
2023/02/07 01:37:38;;;;;;;70.83;25.47;;;;;;;-145.69;100.00;52757.31;5115533;28;20208;-83
2023/02/07 01:40:05;;;;;;;70.90;27.30;;;;;;;-145.69;100.00;52745.41;5115706;28;20296;-83
2023/02/07 01:42:33;;;;;;;81.00;27.43;;;;;;;-145.69;100.00;52777.09;5115197;28;20252;-83
2023/02/07 01:45:03;;;;;;;76.10;26.30;;;;;;;-145.69;100.00;52777.09;5095981;27;20194;-83
2023/02/07 01:47:31;;;;;;;86.20;27.60;;;;;;;-145.69;100.00;52733.53;5113515;28;20197;-82
2023/02/07 01:49:58;;;;;;;71.10;27.33;;;;;;;-145.69;100.00;52769.19;5114762;28;20198;-84
2023/02/07 01:52:28;;;;;;;76.40;25.67;;;;;;;-145.69;100.00;52745.41;5115208;28;20205;-84
2023/02/07 01:54:59;;;;;;;78.17;24.73;;;;;;;-145.69;100.00;52790.97;5114392;28;20201;-81
2023/02/07 01:57:25;;;;;;;71.33;22.87;;;;;;;-145.69;100.00;52785.03;5114466;28;20193;-83
2023/02/07 01:59:57;;;;;;;51.60;20.53;;;;;;;-145.69;100.00;52757.31;5115423;28;20648;-80
2023/02/07 02:02:27;;;;;;;58.57;21.43;;;;;;;-145.69;100.00;52767.19;5114361;28;20599;-80
2023/02/07 02:04:55;;;;;;;56.80;19.27;;;;;;;-145.69;100.00;52765.22;5114472;28;20687;-81
2023/02/07 02:07:23;;;;;;;52.90;19.53;;;;;;;-145.69;100.00;52777.09;5113359;28;20560;-81
2023/02/07 02:09:50;;;;;;;42.57;16.37;;;;;;;-145.69;100.00;52751.34;5105527;28;20779;-81
2023/02/07 02:12:34;;;;;;;40.40;15.10;;;;;;;-145.69;100.00;52767.19;5093913;28;20198;-82
2023/02/07 02:15:14;;;;;;;37.77;14.20;;;;;;;-145.69;100.00;52717.69;5094380;28;20205;-82
2023/02/07 02:17:53;;;;;;;39.10;15.10;;;;;;;-145.69;100.00;52765.22;5094418;28;20206;-81
2023/02/07 02:21:04;;;;;;;36.77;15.10;;;;;;;-145.69;100.00;52753.34;5094319;28;20217;-82
2023/02/07 02:23:44;;;;;;;34.77;13.70;;;;;;;-145.69;100.00;52733.53;5105988;28;20197;-82
2023/02/07 02:26:44;;;;;;;31.10;12.87;;;;;;;-145.69;100.00;52745.41;5098119;28;20560;-82
2023/02/07 02:29:38;;;;;;;35.47;11.77;;;;;;;-145.69;100.00;52745.41;5073547;28;20194;-81
2023/02/07 02:32:37;;;;;;;30.33;11.47;;;;;;;-145.69;100.00;52761.25;5085098;28;20289;-81
2023/02/07 02:35:10;;;;;;;21.43;9.03;;;;;;;-145.69;100.00;52773.16;5093964;28;20217;-82
2023/02/07 02:37:46;;;;;;;22.70;10.37;;;;;;;-145.69;100.00;52765.22;5093665;28;20598;-80
2023/02/07 02:40:20;;;;;;;28.60;11.20;;;;;;;-145.69;100.00;52757.31;5093383;28;20208;-81
2023/02/07 02:42:53;;;;;;;22.77;10.60;;;;;;;-145.69;100.00;52721.66;5093233;28;20242;-80
2023/02/07 02:45:25;;;;;;;23.73;10.13;;;;;;;-145.69;100.00;52747.41;5093959;28;20205;-83
2023/02/07 02:47:54;;;;;;;28.17;10.93;;;;;;;-145.69;100.00;52769.19;5093358;28;20209;-82
2023/02/07 02:50:24;;;;;;;26.63;10.87;;;;;;;-145.69;100.00;52777.09;5093139;28;20194;-82
2023/02/07 02:52:50;;;;;;;24.73;11.57;;;;;;;-145.69;100.00;52761.25;5093519;28;20202;-83
2023/02/07 02:55:22;;;;;;;22.10;11.47;;;;;;;-145.69;100.00;52729.56;5093484;28;20206;-81
2023/02/07 02:57:57;;;;;;;25.90;10.67;;;;;;;-145.69;100.00;52765.22;5111174;28;20678;-81
2023/02/07 03:00:37;;;;;;;24.53;10.57;;;;;;;-145.69;100.00;52777.09;5072464;28;20209;-81
2023/02/07 03:03:22;;;;;;;32.47;11.97;;;;;;;-145.69;100.00;52741.47;5085068;28;20229;-82
2023/02/07 03:06:02;;;;;;;28.47;11.77;;;;;;;-145.69;100.00;52757.31;5093591;28;20217;-82
2023/02/07 03:08:35;;;;;;;29.13;12.90;;;;;;;-145.69;100.00;52757.31;5092790;28;20272;-82
2023/02/07 03:11:09;;;;;;;25.40;11.07;;;;;;;-145.69;100.00;52751.34;5093089;28;20197;-81
2023/02/07 03:13:44;;;;;;;28.47;13.20;;;;;;;-145.69;100.00;52757.31;5107789;28;20225;-81
2023/02/07 03:16:17;;;;;;;28.20;12.47;;;;;;;-145.69;100.00;52771.16;5113852;28;20201;-82
2023/02/07 03:18:54;;;;;;;26.07;12.33;;;;;;;-145.69;100.00;52753.34;5113682;27;20213;-81
2023/02/07 03:21:26;;;;;;;29.97;12.73;;;;;;;-145.69;100.00;52753.34;5113435;28;20577;-81
2023/02/07 03:23:56;;;;;;;30.93;13.87;;;;;;;-145.69;100.00;52753.34;5113082;28;20201;-81
2023/02/07 03:26:25;;;;;;;36.23;13.67;;;;;;;-145.69;100.00;52757.31;5092803;28;20230;-81
2023/02/07 03:28:53;;;;;;;34.07;12.00;;;;;;;-145.69;100.00;52769.19;5092602;28;20675;-80
2023/02/07 03:31:23;;;;;;;31.67;12.27;;;;;;;-145.69;100.00;52747.41;5092829;28;20202;-81
2023/02/07 03:33:56;;;;;;;29.13;12.40;;;;;;;-145.69;100.00;52749.38;5092919;28;20206;-82
2023/02/07 03:36:27;;;;;;;35.20;13.40;;;;;;;-145.69;100.00;52747.41;5099721;28;20185;-80
2023/02/07 03:38:54;;;;;;;33.40;13.80;;;;;;;-145.69;100.00;52765.22;5113039;28;20201;-81
2023/02/07 03:41:28;;;;;;;30.17;13.47;;;;;;;-145.69;100.00;52739.47;5112752;28;20714;-81
2023/02/07 03:43:58;;;;;;;30.37;12.80;;;;;;;-145.69;100.00;52743.44;5100972;28;20202;-80
2023/02/07 03:46:25;;;;;;;31.53;12.87;;;;;;;-145.69;100.00;52749.38;5106133;28;20201;-80
2023/02/07 03:48:52;;;;;;;23.27;11.00;;;;;;;-145.69;100.00;52773.16;5113288;28;20255;-80
2023/02/07 03:51:19;;;;;;;28.83;11.97;;;;;;;-145.69;100.00;52769.19;5112966;28;20203;-80
2023/02/07 03:53:45;;;;;;;23.33;11.47;;;;;;;-145.69;100.00;52761.25;5105672;28;20186;-82
2023/02/07 03:56:12;;;;;;;26.27;11.90;;;;;;;-145.69;100.00;52755.31;5092497;28;20205;-80
2023/02/07 03:58:38;;;;;;;29.60;11.57;;;;;;;-145.69;100.00;52745.41;5092594;28;20194;-79
2023/02/07 04:01:05;;;;;;;23.77;10.63;;;;;;;-145.69;100.00;52777.09;5090966;28;20240;-80
2023/02/07 04:03:31;;;;;;;24.50;10.97;;;;;;;-145.69;100.00;52757.31;5092422;28;20209;-79
2023/02/07 04:05:59;;;;;;;24.00;10.30;;;;;;;-145.69;100.00;52759.28;5100485;28;20204;-79
2023/02/07 04:08:25;;;;;;;26.07;10.23;;;;;;;-145.69;100.00;52755.31;5113101;28;20221;-81
2023/02/07 04:10:58;;;;;;;21.63;9.43;;;;;;;-145.69;100.00;52761.25;5112707;28;20675;-80
2023/02/07 04:13:25;;;;;;;21.83;9.47;;;;;;;-145.69;100.00;52785.03;5112576;28;20193;-80
2023/02/07 04:15:51;;;;;;;22.53;10.27;;;;;;;-145.69;100.00;52763.25;5112927;28;20204;-81
2023/02/07 04:18:18;;;;;;;24.63;10.07;;;;;;;-145.69;100.00;52775.13;5110694;28;20230;-81
2023/02/07 04:20:44;;;;;;;22.87;9.13;;;;;;;-145.69;100.00;52721.66;5108235;28;20233;-80
2023/02/07 04:23:12;;;;;;;24.97;10.70;;;;;;;-145.69;100.00;52747.41;5095988;28;20228;-80
2023/02/07 04:25:39;;;;;;;24.67;11.37;;;;;;;-145.69;100.00;52709.78;5096260;28;20209;-81
2023/02/07 04:28:06;;;;;;;23.53;9.43;;;;;;;-145.69;100.00;52761.25;5106752;28;20209;-80
2023/02/07 04:30:32;;;;;;;25.57;10.93;;;;;;;-145.69;100.00;52769.19;5115649;28;20201;-80
2023/02/07 04:32:59;;;;;;;22.57;10.83;;;;;;;-145.69;100.00;52753.34;5116296;28;20198;-80
2023/02/07 04:35:25;;;;;;;20.93;9.43;;;;;;;-145.69;100.00;52767.19;5115495;28;20233;-79
2023/02/07 04:37:52;;;;;;;22.83;10.63;;;;;;;-145.69;100.00;52775.13;5109149;28;20196;-80
2023/02/07 04:40:20;;;;;;;24.97;11.03;;;;;;;-145.69;100.00;52755.31;5099640;28;20584;-80
2023/02/07 04:42:46;;;;;;;23.27;9.60;;;;;;;-145.69;100.00;52765.22;5095201;28;20585;-80
2023/02/07 04:45:13;;;;;;;24.70;11.70;;;;;;;-145.69;100.00;52749.38;5095490;28;20202;-80
2023/02/07 04:47:39;;;;;;;23.13;10.17;;;;;;;-145.69;100.00;52761.25;5095182;28;20204;-81
2023/02/07 04:50:06;;;;;;;23.23;10.77;;;;;;;-145.69;100.00;52735.50;5094595;28;20198;-80
2023/02/07 04:52:32;;;;;;;27.47;11.73;;;;;;;-145.69;100.00;52729.56;5106423;28;20198;-80
2023/02/07 04:54:59;;;;;;;25.67;10.40;;;;;;;-145.69;100.00;52773.16;5115524;28;20212;-80
2023/02/07 04:57:27;;;;;;;25.20;11.50;;;;;;;-145.69;100.00;52743.44;5114559;28;20560;-80
2023/02/07 04:59:53;;;;;;;23.83;11.33;;;;;;;-145.69;100.00;52747.41;5115850;28;20197;-81
2023/02/07 05:02:20;;;;;;;22.23;10.43;;;;;;;-145.69;100.00;52739.47;5115397;28;20221;-80
2023/02/07 05:04:46;;;;;;;24.20;11.17;;;;;;;-145.69;100.00;52761.25;5099333;28;20190;-80
2023/02/07 05:07:13;;;;;;;28.63;11.87;;;;;;;-145.69;100.00;52755.31;5111432;28;20216;-80
2023/02/07 05:09:39;;;;;;;24.00;11.37;;;;;;;-145.69;100.00;52775.13;5115370;28;20197;-80
2023/02/07 05:12:06;;;;;;;25.43;10.90;;;;;;;-145.69;100.00;52761.25;5115127;28;20205;-79
2023/02/07 05:14:34;;;;;;;23.80;10.60;;;;;;;-145.69;100.00;52783.06;5114010;28;20240;-80
2023/02/07 05:17:00;;;;;;;22.43;11.07;;;;;;;-145.69;100.00;52759.28;5102455;28;20198;-80
2023/02/07 05:19:27;;;;;;;27.90;12.17;;;;;;;-145.69;100.00;52743.44;5095078;28;20210;-80
2023/02/07 05:21:53;;;;;;;24.20;10.85;;;;;;;-145.69;100.00;52751.34;5093185;28;20504;-79
2023/02/07 05:24:20;;;;;;;22.43;11.47;;;;;;;-145.69;100.00;52765.22;5094610;28;20202;-79
2023/02/07 05:26:47;;;;;;;23.47;10.83;;;;;;;-145.69;100.00;52761.25;5094724;28;20194;-80
2023/02/07 05:29:13;;;;;;;25.30;10.90;;;;;;;-145.69;100.00;52759.28;5113955;28;20200;-81
2023/02/07 05:34:25;;;;;;;21.43;10.20;;;;;;;-145.69;100.00;52737.50;5094803;28;20294;-82
2023/02/07 05:36:51;;;;;;;24.87;11.63;;;;;;;-145.69;100.00;52747.41;5094636;28;20198;-82
2023/02/07 05:39:18;;;;;;;22.17;10.10;;;;;;;-145.69;100.00;52701.84;5094883;28;20198;-81
2023/02/07 05:41:44;;;;;;;25.23;12.10;;;;;;;-145.69;100.00;52757.31;5114394;28;20229;-81
2023/02/07 05:44:11;;;;;;;22.10;11.30;;;;;;;-145.69;100.00;52777.09;5115118;28;20204;-82
2023/02/07 05:46:37;;;;;;;24.50;11.17;;;;;;;-145.69;100.00;52761.25;5114990;28;20263;-82
2023/02/07 05:49:05;;;;;;;26.77;11.20;;;;;;;-145.69;100.00;52757.31;5115046;28;20200;-81
2023/02/07 05:51:31;;;;;;;22.40;10.77;;;;;;;-145.69;100.00;52767.19;5111853;28;20212;-82
2023/02/07 05:53:58;;;;;;;23.57;10.57;;;;;;;-145.69;100.00;52757.31;5094609;28;20202;-81
2023/02/07 05:56:24;;;;;;;23.13;10.83;;;;;;;-145.69;100.00;52755.31;5094532;28;20209;-81
2023/02/07 05:58:52;;;;;;;20.07;10.00;;;;;;;-145.69;100.00;52775.13;5109203;28;20200;-81
2023/02/07 06:01:19;;;;;;;22.63;11.67;;;;;;;-145.69;100.00;52769.19;5114738;28;20288;-81
2023/02/07 06:03:45;;;;;;;27.33;11.30;;;;;;;-145.69;100.00;52767.19;5114535;28;20233;-82
2023/02/07 06:06:13;;;;;;;23.07;11.80;;;;;;;-145.69;100.00;52743.44;5103783;28;20201;-82
2023/02/07 06:08:39;;;;;;;22.87;11.07;;;;;;;-145.69;100.00;52761.25;5094051;28;20645;-82
2023/02/07 06:11:06;;;;;;;25.03;11.63;;;;;;;-145.69;100.00;52751.34;5094165;28;20198;-82
2023/02/07 06:13:32;;;;;;;22.80;10.77;;;;;;;-145.69;100.00;52749.38;5094273;28;20202;-82
2023/02/07 06:15:59;;;;;;;25.87;12.20;;;;;;;-145.69;100.00;52749.38;5094177;28;20202;-82
2023/02/07 06:18:25;;;;;;;26.27;11.00;;;;;;;-145.69;100.00;52765.22;5094220;28;20194;-82
2023/02/07 06:20:52;;;;;;;23.23;10.80;;;;;;;-145.69;100.00;52771.16;5094150;28;20211;-82
2023/02/07 06:23:21;;;;;;;24.37;11.60;;;;;;;-145.69;100.00;52751.34;5093707;28;20221;-82
2023/02/07 06:25:48;;;;;;;23.17;11.00;;;;;;;-145.69;100.00;52719.66;5093947;28;20289;-82
2023/02/07 06:28:14;;;;;;;24.57;10.90;;;;;;;-145.69;100.00;52737.50;5094411;28;20255;-82
2023/02/07 06:30:41;;;;;;;19.53;10.10;;;;;;;-145.69;100.00;52715.72;5093965;28;20202;-82
2023/02/07 06:33:07;;;;;;;20.50;10.50;;;;;;;-145.69;100.00;52733.53;5093805;28;20201;-82
2023/02/07 06:35:34;;;;;;;23.70;10.43;;;;;;;-145.69;100.00;52723.63;5093825;28;20209;-82
2023/02/07 06:38:00;;;;;;;23.30;10.87;;;;;;;-145.69;100.00;52753.34;5094095;28;20206;-82
2023/02/07 06:40:28;;;;;;;21.40;10.67;;;;;;;-145.69;100.00;52789.00;5093933;28;20198;-82
2023/02/07 06:42:55;;;;;;;21.37;11.07;;;;;;;-145.69;100.00;52745.41;5091157;28;20238;-81
2023/02/07 06:45:21;;;;;;;23.10;10.40;;;;;;;-145.69;100.00;52757.31;5114138;28;20196;-82
2023/02/07 06:47:47;;;;;;;22.67;10.50;;;;;;;-145.69;100.00;52761.25;5114155;28;20200;-82
2023/02/07 06:50:14;;;;;;;25.27;11.90;;;;;;;-145.69;100.00;52741.47;5114263;28;20296;-82
2023/02/07 06:52:40;;;;;;;24.40;11.00;;;;;;;-145.69;100.00;52753.34;5113424;28;20201;-82
2023/02/07 06:55:08;;;;;;;20.13;10.50;;;;;;;-145.69;100.00;52735.50;5113898;28;20201;-82
2023/02/07 06:57:36;;;;;;;22.20;10.43;;;;;;;-145.69;100.00;52743.44;5113870;28;20198;-82
2023/02/07 07:00:03;;;;;;;19.70;10.13;;;;;;;-145.69;100.00;52751.34;5113534;28;20197;-81
2023/02/07 07:02:30;;;;;;;30.27;12.95;;;;;;;-145.69;100.00;52779.09;5113141;28;20443;-82
2023/02/07 07:04:56;;;;;;;29.50;11.77;;;;;;;-145.69;100.00;52701.84;5105094;28;20554;-82
2023/02/07 07:07:23;;;;;;;27.90;11.07;;;;;;;-145.69;100.00;52785.03;5113375;28;20675;-82
2023/02/07 07:09:50;;;;;;;23.33;11.60;;;;;;;-145.69;100.00;52753.34;5113267;28;20197;-82
2023/02/07 07:12:16;;;;;;;25.67;11.40;;;;;;;-145.69;100.00;52731.56;5113868;28;20660;-82
2023/02/07 07:14:44;;;;;;;22.67;10.90;;;;;;;-145.69;100.00;52777.09;5098483;28;20204;-81
2023/02/07 07:17:10;;;;;;;23.17;10.90;;;;;;;-145.69;100.00;52761.25;5105533;28;20201;-81
2023/02/07 07:19:37;;;;;;;19.07;10.07;;;;;;;-145.69;100.00;52733.53;5113442;28;20671;-80
2023/02/07 07:22:03;;;;;;;19.67;10.30;;;;;;;-145.69;100.00;52737.50;5113390;28;20193;-82
2023/02/07 07:24:30;;;;;;;27.33;10.90;;;;;;;-145.69;100.00;52737.50;5113318;27;20232;-83
2023/02/07 07:26:56;;;;;;;22.37;10.50;;;;;;;-145.69;100.00;52739.47;5113455;28;20193;-82
2023/02/07 07:29:23;;;;;;;26.13;12.30;;;;;;;-145.69;100.00;52759.28;5099497;28;20199;-83
2023/02/07 07:31:50;;;;;;;28.40;12.30;;;;;;;-145.69;100.00;52753.34;5093239;28;20206;-82
2023/02/07 07:34:17;;;;;;;23.80;11.73;;;;;;;-145.69;100.00;52723.63;5093673;28;20202;-82
2023/02/07 07:36:43;;;;;;;25.13;10.90;;;;;;;-145.69;100.00;52775.13;5095604;28;20669;-83
2023/02/07 07:39:10;;;;;;;29.83;13.17;;;;;;;-145.69;100.00;52753.34;5106133;28;20202;-82
2023/02/07 07:41:37;;;;;;;26.70;10.97;;;;;;;-145.69;100.00;52765.22;5113461;28;20232;-83
2023/02/07 07:44:03;;;;;;;29.83;11.70;;;;;;;-145.69;100.00;52739.47;5112934;28;20221;-81
2023/02/07 07:46:30;;;;;;;22.27;11.33;;;;;;;-145.69;100.00;52769.19;5112684;28;20197;-82
2023/02/07 07:48:57;;;;;;;24.83;11.27;;;;;;;-145.69;100.00;52749.38;5113258;28;20193;-81
2023/02/07 07:51:24;;;;;;;29.47;11.77;;;;;;;-145.69;100.00;52765.22;5113240;28;20197;-80
2023/02/07 07:53:50;;;;;;;29.50;12.57;;;;;;;-145.69;100.00;52753.34;5115116;28;20209;-80
2023/02/07 07:56:17;;;;;;;25.73;11.27;;;;;;;-145.69;100.00;52731.56;5116983;28;20201;-80
2023/02/07 07:58:43;;;;;;;24.73;10.73;;;;;;;-145.69;100.00;52741.47;5116006;28;20193;-80
2023/02/07 08:01:10;;;;;;;27.20;13.13;;;;;;;-145.69;100.00;52745.41;5117105;28;20197;-81
2023/02/07 08:03:36;;;;;;;26.07;11.73;;;;;;;-145.69;100.00;52725.63;5116794;28;20229;-80
2023/02/07 08:06:04;;;;;;;32.60;13.67;;;;;;;-145.69;100.00;52753.34;5116256;28;20209;-79
2023/02/07 08:08:31;;;;;;;31.67;13.43;;;;;;;-145.69;100.00;52745.41;5116607;28;20233;-80
2023/02/07 08:11:01;;;;;;;28.70;12.57;;;;;;;-145.69;100.00;52761.25;5099832;28;20549;-80
2023/02/07 08:13:27;;;;;;;29.57;13.47;;;;;;;-145.69;100.00;52775.13;5098132;28;20201;-80
2023/02/07 08:15:54;;;;;;;30.40;12.90;;;;;;;-145.69;100.00;52757.31;5116064;28;20205;-81
2023/02/07 08:18:20;;;;;;;28.63;11.93;;;;;;;-145.69;100.00;52773.16;5116466;28;20194;-80
2023/02/07 08:20:48;;;;;;;27.37;12.50;;;;;;;-145.69;100.00;52753.34;5116770;28;20201;-79
2023/02/07 08:23:16;;;;;;;28.17;13.07;;;;;;;-145.69;100.00;52767.19;5095912;28;20817;-80
2023/02/07 08:25:45;;;;;;;28.10;12.93;;;;;;;-145.69;100.00;52733.53;5095739;28;20201;-80
2023/02/07 08:28:11;;;;;;;30.40;12.93;;;;;;;-145.69;100.00;52769.19;5095864;28;20725;-80
2023/02/07 08:30:38;;;;;;;27.10;12.60;;;;;;;-145.69;100.00;52725.63;5096016;28;20205;-81
2023/02/07 08:33:05;;;;;;;28.27;12.57;;;;;;;-145.69;100.00;52785.03;5096019;28;20209;-81
2023/02/07 08:35:31;;;;;;;27.50;12.67;;;;;;;-145.69;100.00;52761.25;5096282;28;20193;-82
2023/02/07 08:37:58;;;;;;;29.90;13.00;;;;;;;-145.69;100.00;52759.28;5095701;28;20198;-81
2023/02/07 08:40:26;;;;;;;31.10;14.35;;;;;;;-145.69;100.00;52769.19;5095361;28;20428;-82
2023/02/07 08:42:53;;;;;;;25.87;12.40;;;;;;;-145.69;100.00;52767.19;5089663;28;20230;-81
2023/02/07 08:45:19;;;;;;;24.40;11.83;;;;;;;-145.69;100.00;52765.22;5094324;28;20198;-81
2023/02/07 08:47:46;;;;;;;27.30;12.10;;;;;;;-145.69;100.00;52745.41;5075505;28;20300;-80
2023/02/07 08:50:14;;;;;;;24.50;11.60;;;;;;;-145.69;100.00;52731.56;5073932;28;20241;-81
2023/02/07 08:52:41;;;;;;;28.40;12.67;;;;;;;-145.69;100.00;52761.25;5075105;28;20656;-82
2023/02/07 08:55:07;;;;;;;24.67;12.20;;;;;;;-145.69;100.00;52769.19;5075466;28;20670;-81
2023/02/07 08:57:36;;;;;;;30.20;12.77;;;;;;;-145.69;100.00;52757.31;5076379;28;20201;-83
2023/02/07 09:00:03;;;;;;;27.30;11.83;;;;;;;-145.69;100.00;52747.41;5116510;28;20201;-81
2023/02/07 09:02:30;;;;;;;27.27;12.60;;;;;;;-145.69;100.00;52741.47;5115884;28;20212;-80
2023/02/07 09:04:56;;;;;;;29.47;12.30;;;;;;;-145.69;100.00;52733.53;5113125;28;20232;-80
2023/02/07 09:07:23;;;;;;;26.93;12.93;;;;;;;-145.69;100.00;52749.38;5094990;28;20652;-80
2023/02/07 09:09:49;;;;;;;28.17;12.53;;;;;;;-145.69;100.00;52725.63;5096119;28;20194;-79
2023/02/07 09:12:16;;;;;;;29.37;12.37;;;;;;;-145.69;100.00;52763.25;5095129;28;20206;-79
2023/02/07 09:14:43;;;;;;;25.37;11.47;;;;;;;-145.69;100.00;52735.50;5107549;28;20243;-81
2023/02/07 09:17:10;;;;;;;24.53;12.20;;;;;;;-145.69;100.00;52713.72;5115412;28;20193;-80
2023/02/07 09:19:36;;;;;;;28.57;13.60;;;;;;;-145.69;100.00;52713.72;5114949;28;20232;-79
2023/02/07 09:22:04;;;;;;;26.20;12.70;;;;;;;-145.69;100.00;52769.19;5109776;28;20194;-80
2023/02/07 09:24:30;;;;;;;25.33;13.00;;;;;;;-145.69;100.00;52747.41;5096242;28;20232;-79
2023/02/07 09:26:57;;;;;;;28.13;12.33;;;;;;;-145.69;100.00;52747.41;5114728;28;20198;-80
2023/02/07 09:29:23;;;;;;;29.07;13.50;;;;;;;-145.69;100.00;52755.31;5115046;28;20797;-80
2023/02/07 09:31:51;;;;;;;24.03;12.03;;;;;;;-145.69;100.00;52733.53;5114946;28;20197;-81
2023/02/07 09:34:18;;;;;;;25.00;12.70;;;;;;;-145.69;100.00;52715.72;5109911;28;20202;-79
2023/02/07 09:36:45;;;;;;;27.23;13.13;;;;;;;-145.69;100.00;52761.25;5110155;28;20210;-80
2023/02/07 09:39:11;;;;;;;25.40;12.30;;;;;;;-145.69;100.00;52757.31;5112318;28;20648;-80
2023/02/07 09:41:45;;;;;;;28.07;12.67;;;;;;;-145.69;100.00;52741.47;5094343;28;20226;-80
2023/02/07 09:44:16;;;;;;;25.90;11.73;;;;;;;-145.69;100.00;52759.28;5094038;28;20229;-81
2023/02/07 09:46:49;;;;;;;23.83;11.60;;;;;;;-145.69;100.00;52735.50;5094394;28;20223;-79
2023/02/07 09:49:28;;;;;;;30.10;11.40;;;;;;;-145.69;100.00;52749.38;5094521;28;20198;-80
2023/02/07 09:51:57;;;;;;;27.67;11.87;;;;;;;-145.69;100.00;52737.50;5094338;28;20272;-79
2023/02/07 09:54:26;;;;;;;23.17;11.27;;;;;;;-145.69;100.00;52705.81;5107403;28;20602;-80
2023/02/07 09:56:56;;;;;;;26.07;12.13;;;;;;;-145.69;100.00;52745.41;5114560;28;20204;-82
2023/02/07 09:59:27;;;;;;;23.93;11.93;;;;;;;-145.69;100.00;52713.72;5091224;28;20201;-83
2023/02/07 10:01:59;;;;;;;22.93;11.07;;;;;;;-145.69;100.00;52745.41;5114613;28;20698;-82
2023/02/07 10:04:35;;;;;;;29.90;13.83;;;;;;;-145.69;100.00;52751.34;5115382;28;20699;-84
2023/02/07 10:07:06;;;;;;;20.97;11.00;;;;;;;-145.69;100.00;52725.63;5114258;28;20188;-84
2023/02/07 10:09:38;;;;;;;24.77;10.90;;;;;;;-145.69;100.00;52729.56;5115429;28;20197;-83
2023/02/07 10:12:16;;;;;;;22.93;12.07;;;;;;;-145.69;100.00;52743.44;5093968;28;20601;-78
2023/02/07 10:15:01;;;;;;;23.30;11.23;;;;;;;-145.69;100.00;52755.31;5094003;28;20216;-81
2023/02/07 10:17:45;;;;;;;23.73;11.70;;;;;;;-145.69;100.00;52731.56;5093907;28;20664;-81
2023/02/07 10:20:29;;;;;;;27.97;12.17;;;;;;;-145.69;100.00;52729.56;5073675;28;20221;-82
2023/02/07 10:23:09;;;;;;;23.00;11.10;;;;;;;-145.69;100.00;52731.56;5074059;28;20202;-83
2023/02/07 10:25:43;;;;;;;18.53;9.90;;;;;;;-145.69;100.00;52745.41;5074265;28;20210;-83
2023/02/07 10:28:34;;;;;;;19.67;10.13;;;;;;;-145.69;100.00;52717.69;5087141;28;20213;-83
2023/02/07 10:31:05;;;;;;;21.17;10.03;;;;;;;-145.69;100.00;52753.34;5075281;28;20285;-79
2023/02/07 10:33:34;;;;;;;21.23;10.10;;;;;;;-145.69;100.00;52723.63;5091094;28;20204;-80
2023/02/07 10:36:05;;;;;;;22.47;10.43;;;;;;;-145.69;100.00;52741.47;5094056;28;20213;-84
2023/02/07 10:38:37;;;;;;;19.80;10.20;;;;;;;-145.69;100.00;52709.78;5094278;28;20583;-84
2023/02/07 10:41:11;;;;;;;19.53;10.03;;;;;;;-145.69;100.00;52721.66;5092469;28;20238;-83
2023/02/07 10:43:40;;;;;;;20.27;11.10;;;;;;;-145.69;100.00;52723.63;5073880;28;20227;-84
2023/02/07 10:46:09;;;;;;;22.33;10.70;;;;;;;-145.69;100.00;52693.94;5074326;28;20221;-86
2023/02/07 10:48:38;;;;;;;21.53;9.97;;;;;;;-145.69;100.00;52749.38;5088952;28;20200;-79
2023/02/07 10:51:22;;;;;;;20.07;10.60;;;;;;;-145.69;100.00;52721.66;5093893;28;20217;-89
2023/02/07 10:53:50;;;;;;;22.13;10.97;;;;;;;-145.69;100.00;52682.03;5095300;28;20296;-89
2023/02/07 10:56:19;;;;;;;24.50;11.30;;;;;;;-145.69;100.00;52723.63;5095394;28;20232;-87
2023/02/07 10:58:46;;;;;;;22.23;10.77;;;;;;;-145.69;100.00;52723.63;5114845;28;20194;-86
2023/02/07 11:01:19;;;;;;;24.83;11.23;;;;;;;-145.69;100.00;52680.06;5114546;28;20674;-85
2023/02/07 11:03:46;;;;;;;19.43;10.37;;;;;;;-145.69;100.00;52733.53;5092510;28;20744;-82
2023/02/07 11:06:16;;;;;;;22.10;10.03;;;;;;;-145.69;100.00;52765.22;5093223;28;20282;-80